Ewaterfrd, Pennsylvania
Current Conditions -  °F | °C
As of 1:29 PM on Thursday 27 Nov 2014 (Local Time) from KAOO Reporting Station
Overcast Overcast  
Wind Chill: 27°   Ceiling: 2800
Heat Index: 35°   Visibility: 10mi
Dew Point: 26°   Wind: 10mph
Humidity: 70%   Direction: 300°WNW
Pressure: 30"   Gusts: NA
Location:  40.3617°N, 77.6745°W
Report Text: KAOO 271829Z AUTO 30009KT 10SM BKN028 OVC035 02/M03 A3000 RMK AO2 SNB06E19 P0002 T00171033
Loading
Personal Weather Stations






























Interactive Weather Map New forecast layout! Learn more

10-Day Weather Forecast

Advertisements
Track Severe Weather on mobile